Time;durP1;ratioP1;P1;durP2;ratioP2;P2;SDS_P1;SDS_P2;PMS_P1;PMS_P2;Temp;Humidity;BMP_temperature;BMP_pressure;BME280_temperature;BME280_humidity;BME280_pressure;Samples;Min_cycle;Max_cycle;Signal;HPM_P1;HPM_P2
2022/07/05 00:01:17;;;;;;;;;;;;;;;21.55;48.76;102076.25;7288300;19;153609;-60
2022/07/05 00:03:44;;;;;;;;;;;;;;;21.55;49.16;102081.88;7283504;19;152800;-60
2022/07/05 00:06:11;;;;;;;;;;;;;;;21.55;48.68;102079.91;7280216;19;153168;-60
2022/07/05 00:08:38;;;;;;;;;;;;;;;21.56;49.14;102081.59;7283062;19;152562;-60
2022/07/05 00:11:05;;;;;;;;;;;;;;;21.55;48.97;102082.72;7281533;19;152546;-60
2022/07/05 00:13:31;;;;;;;;;;;;;;;21.56;49.35;102084.41;7282026;19;153373;-60
2022/07/05 00:15:58;;;;;;;;;;;;;;;21.56;49.11;102078.78;7284222;19;152453;-60
2022/07/05 00:18:25;;;;;;;;;;;;;;;21.58;49.10;102084.09;7283076;19;153668;-60
2022/07/05 00:20:51;;;;;;;;;;;;;;;21.58;49.27;102086.91;7279990;19;153172;-60
2022/07/05 00:23:18;;;;;;;;;;;;;;;21.58;49.45;102084.94;7287048;19;152106;-59
2022/07/05 00:25:45;;;;;;;;;;;;;;;21.59;49.46;102086.63;7279852;19;154830;-60
2022/07/05 00:28:13;;;;;;;;;;;;;;;21.58;49.49;102086.91;7283368;19;153169;-60
2022/07/05 00:30:40;;;;;;;;;;;;;;;21.59;49.63;102091.41;7283273;19;153033;-60
2022/07/05 00:33:07;;;;;;;;;;;;;;;21.61;49.60;102092.81;7279831;19;153754;-59
2022/07/05 00:35:33;;;;;;;;;;;;;;;21.60;49.72;102088.31;7280792;19;152263;-59
2022/07/05 00:38:00;;;;;;;;;;;;;;;21.58;49.74;102098.16;7282465;19;152674;-59
2022/07/05 00:40:27;;;;;;;;;;;;;;;21.60;49.57;102102.38;7282111;19;153196;-59
2022/07/05 00:42:53;;;;;;;;;;;;;;;21.62;49.75;102100.09;7283203;19;152147;-59
2022/07/05 00:45:21;;;;;;;;;;;;;;;21.61;49.54;102100.41;7288393;19;152311;-59
2022/07/05 00:47:47;;;;;;;;;;;;;;;21.60;49.57;102104.34;7282677;19;152130;-58
2022/07/05 00:50:14;;;;;;;;;;;;;;;21.59;49.80;102106.31;7280279;19;153467;-59
2022/07/05 00:52:41;;;;;;;;;;;;;;;21.59;49.95;102097.03;7278549;19;153880;-59
2022/07/05 00:55:08;;;;;;;;;;;;;;;21.61;49.76;102104.06;7283765;19;151826;-59
2022/07/05 00:57:34;;;;;;;;;;;;;;;21.60;49.84;102093.94;7283189;19;152577;-59
2022/07/05 01:00:02;;;;;;;;;;;;;;;21.60;50.27;102099.56;7278719;19;154191;-58
2022/07/05 01:02:29;;;;;;;;;;;;;;;21.62;50.44;102099.28;7282366;19;152572;-59
2022/07/05 01:04:57;;;;;;;;;;;;;;;21.61;50.30;102094.78;7278740;19;153875;-59
2022/07/05 01:07:25;;;;;;;;;;;;;;;21.60;50.50;102095.91;7286082;19;153923;-59
2022/07/05 01:09:52;;;;;;;;;;;;;;;21.60;50.54;102095.91;7279091;19;154932;-59
2022/07/05 01:12:18;;;;;;;;;;;;;;;21.63;50.57;102095.31;7281109;19;154285;-59
2022/07/05 01:14:45;;;;;;;;;;;;;;;21.64;50.69;102091.41;7280504;19;151952;-59
2022/07/05 01:17:14;;;;;;;;;;;;;;;21.66;50.64;102086.34;7281064;19;151983;-59
2022/07/05 01:19:40;;;;;;;;;;;;;;;21.66;50.53;102094.78;7280204;19;153436;-59
2022/07/05 01:22:16;;;;;;;;;;;;;;;21.64;50.64;102092.25;7279782;19;152440;-58
2022/07/05 01:24:43;;;;;;;;;;;;;;;21.66;50.50;102087.19;7278444;19;156555;-59
2022/07/05 01:27:11;;;;;;;;;;;;;;;21.68;50.66;102084.91;7284281;19;152671;-59
2022/07/05 01:29:38;;;;;;;;;;;;;;;21.67;50.76;102085.19;7282415;19;153336;-59
2022/07/05 01:32:04;;;;;;;;;;;;;;;21.68;50.98;102092.50;7278780;19;153791;-60
2022/07/05 01:34:32;;;;;;;;;;;;;;;21.68;51.29;102087.72;7276978;19;152735;-60
2022/07/05 01:36:58;;;;;;;;;;;;;;;21.68;51.38;102092.50;7280336;19;153088;-60
2022/07/05 01:39:25;;;;;;;;;;;;;;;21.68;50.98;102098.13;7280196;19;152345;-61
2022/07/05 01:41:51;;;;;;;;;;;;;;;21.68;51.56;102093.34;7280817;19;152934;-62
2022/07/05 01:44:18;;;;;;;;;;;;;;;21.69;51.47;102097.84;7280989;19;151964;-60
2022/07/05 01:46:45;;;;;;;;;;;;;;;21.71;51.21;102098.38;7280194;19;153173;-61
2022/07/05 01:49:16;;;;;;;;;;;;;;;21.71;51.42;102097.56;7287366;19;153375;-61
2022/07/05 01:51:50;;;;;;;;;;;;;;;21.69;51.73;102097.84;7278723;19;153744;-61
2022/07/05 01:54:18;;;;;;;;;;;;;;;21.69;52.02;102103.47;7278219;19;152558;-61
2022/07/05 01:56:45;;;;;;;;;;;;;;;21.70;51.73;102105.16;7280958;19;153769;-61
2022/07/05 01:59:12;;;;;;;;;;;;;;;21.72;52.09;102104.84;7279095;19;152293;-61
2022/07/05 02:01:40;;;;;;;;;;;;;;;21.73;51.92;102107.38;7279327;19;152007;-61
2022/07/05 02:04:07;;;;;;;;;;;;;;;21.72;52.00;102102.03;7275926;19;153591;-61
2022/07/05 02:06:34;;;;;;;;;;;;;;;21.74;51.90;102097.81;7276751;19;153086;-59
2022/07/05 02:09:08;;;;;;;;;;;;;;;21.75;51.78;102104.28;7280874;19;152684;-61
2022/07/05 02:11:38;;;;;;;;;;;;;;;21.74;51.60;102111.88;7287153;19;152819;-60
2022/07/05 02:14:05;;;;;;;;;;;;;;;21.79;51.75;102102.59;7277106;19;152439;-61
2022/07/05 02:16:32;;;;;;;;;;;;;;;21.78;51.82;102102.88;7280280;19;152543;-60
2022/07/05 02:18:59;;;;;;;;;;;;;;;21.78;52.01;102097.22;7279878;19;153368;-60
2022/07/05 02:21:28;;;;;;;;;;;;;;;21.76;51.74;102102.31;7274871;19;152389;-61
2022/07/05 02:23:55;;;;;;;;;;;;;;;21.74;51.62;102109.06;7280534;19;152303;-60
2022/07/05 02:26:21;;;;;;;;;;;;;;;21.74;52.17;102111.03;7272071;19;155207;-61
2022/07/05 02:28:48;;;;;;;;;;;;;;;21.74;51.64;102108.22;7279991;19;152531;-60
2022/07/05 02:31:16;;;;;;;;;;;;;;;21.73;51.95;102100.91;7278143;19;154310;-61
2022/07/05 02:33:43;;;;;;;;;;;;;;;21.73;51.72;102100.91;7284799;19;153654;-61
2022/07/05 02:36:11;;;;;;;;;;;;;;;21.74;51.91;102111.03;7277860;19;154175;-61
2022/07/05 02:38:38;;;;;;;;;;;;;;;21.73;51.69;102103.72;7277935;19;153311;-60
2022/07/05 02:41:06;;;;;;;;;;;;;;;21.72;51.96;102102.88;7280080;19;152861;-60
2022/07/05 02:43:33;;;;;;;;;;;;;;;21.72;51.79;102102.03;7279945;19;153023;-60
2022/07/05 02:46:00;;;;;;;;;;;;;;;21.74;51.56;102097.81;7278326;19;153442;-60
2022/07/05 02:48:27;;;;;;;;;;;;;;;21.77;51.84;102096.41;7276967;19;152160;-60
2022/07/05 02:50:54;;;;;;;;;;;;;;;21.74;51.79;102099.78;7277412;19;154300;-60
2022/07/05 02:53:21;;;;;;;;;;;;;;;21.70;51.67;102096.72;7277071;19;156193;-61
2022/07/05 02:55:47;;;;;;;;;;;;;;;21.70;51.86;102101.50;7284272;19;152516;-62
2022/07/05 02:58:16;;;;;;;;;;;;;;;21.70;52.08;102095.88;7276150;19;152219;-61
2022/07/05 03:00:47;;;;;;;;;;;;;;;21.71;52.02;102108.81;7275047;19;152648;-61
2022/07/05 03:03:14;;;;;;;;;;;;;;;21.72;51.98;102100.06;7279339;19;153134;-62
2022/07/05 03:05:41;;;;;;;;;;;;;;;21.73;51.85;102098.94;7273850;19;154170;-60
2022/07/05 03:08:07;;;;;;;;;;;;;;;21.70;51.52;102104.31;7278517;19;152883;-59
2022/07/05 03:10:34;;;;;;;;;;;;;;;21.71;51.74;102103.19;7278611;19;152664;-60
2022/07/05 03:13:01;;;;;;;;;;;;;;;21.70;51.56;102110.78;7277826;19;154313;-60
2022/07/05 03:15:28;;;;;;;;;;;;;;;21.68;52.11;102107.41;7274934;19;152217;-60
2022/07/05 03:17:54;;;;;;;;;;;;;;;21.66;51.50;102101.25;7286396;19;152557;-60
2022/07/05 03:20:21;;;;;;;;;;;;;;;21.65;51.83;102116.44;7275111;19;152758;-60
2022/07/05 03:22:48;;;;;;;;;;;;;;;21.67;51.99;102114.16;7278030;19;152504;-59
2022/07/05 03:25:15;;;;;;;;;;;;;;;21.68;51.78;102113.03;7275675;19;152241;-60
2022/07/05 03:27:41;;;;;;;;;;;;;;;21.69;51.97;102106.28;7271218;19;152253;-60
2022/07/05 03:30:09;;;;;;;;;;;;;;;21.67;51.69;102113.31;7277806;19;152176;-60
2022/07/05 03:32:35;;;;;;;;;;;;;;;21.66;51.79;102112.50;7278318;19;154667;-61
2022/07/05 03:35:02;;;;;;;;;;;;;;;21.66;51.90;102117.28;7279303;19;153605;-61
2022/07/05 03:37:29;;;;;;;;;;;;;;;21.66;51.98;102120.09;7289792;19;153163;-60
2022/07/05 03:39:56;;;;;;;;;;;;;;;21.66;51.74;102123.75;7284777;19;152119;-61
2022/07/05 03:42:22;;;;;;;;;;;;;;;21.65;51.95;102116.44;7283562;19;152034;-60
2022/07/05 03:44:49;;;;;;;;;;;;;;;21.73;52.14;102114.97;7285227;19;153360;-60
2022/07/05 03:47:16;;;;;;;;;;;;;;;21.68;52.02;102120.63;7283119;19;152613;-60
2022/07/05 03:49:42;;;;;;;;;;;;;;;21.70;52.25;102118.38;7283626;19;152890;-61
2022/07/05 03:52:10;;;;;;;;;;;;;;;21.69;52.09;102113.88;7277957;19;152662;-61
2022/07/05 03:54:36;;;;;;;;;;;;;;;21.71;52.11;102112.44;7283641;19;152420;-61
2022/07/05 03:57:03;;;;;;;;;;;;;;;21.70;52.08;102118.38;7283753;19;152452;-61
2022/07/05 03:59:30;;;;;;;;;;;;;;;21.72;52.10;102116.94;7290039;19;152054;-59
2022/07/05 04:01:56;;;;;;;;;;;;;;;21.79;52.11;102122.28;7283470;19;152348;-61
2022/07/05 04:04:23;;;;;;;;;;;;;;;21.76;51.95;102120.03;7279565;19;152843;-61
2022/07/05 04:06:51;;;;;;;;;;;;;;;21.74;52.09;102122.31;7283289;19;152733;-61
2022/07/05 04:09:18;;;;;;;;;;;;;;;21.76;51.88;102127.66;7284184;19;153259;-60
2022/07/05 04:11:45;;;;;;;;;;;;;;;21.74;51.66;102125.97;7283118;19;152606;-59
2022/07/05 04:14:11;;;;;;;;;;;;;;;21.80;51.59;102132.41;7283142;19;153086;-60
2022/07/05 04:16:38;;;;;;;;;;;;;;;21.76;51.60;102127.66;7283586;19;152395;-60
2022/07/05 04:19:05;;;;;;;;;;;;;;;21.72;51.69;102121.72;7281939;19;153754;-60
2022/07/05 04:21:31;;;;;;;;;;;;;;;21.79;51.63;102129.88;7287486;19;152585;-59
2022/07/05 04:23:58;;;;;;;;;;;;;;;21.74;51.92;102133.56;7283366;19;153591;-60
2022/07/05 04:26:25;;;;;;;;;;;;;;;21.77;51.74;102132.13;7281800;19;153252;-59
2022/07/05 04:28:51;;;;;;;;;;;;;;;21.78;52.02;102123.41;7279851;19;153596;-60
2022/07/05 04:31:23;;;;;;;;;;;;;;;21.82;51.49;102132.09;7281589;19;154743;-61
2022/07/05 04:33:50;;;;;;;;;;;;;;;21.80;51.59;102140.84;7283029;19;152076;-60
2022/07/05 04:36:17;;;;;;;;;;;;;;;21.84;51.38;102138.28;7280434;19;153324;-60
2022/07/05 04:38:44;;;;;;;;;;;;;;;21.82;51.09;102140.53;7281442;19;153021;-61
2022/07/05 04:41:10;;;;;;;;;;;;;;;21.80;51.45;102140.00;7282690;19;153041;-60
2022/07/05 04:43:37;;;;;;;;;;;;;;;21.84;51.70;102141.94;7289941;19;152614;-60
2022/07/05 04:46:04;;;;;;;;;;;;;;;21.80;51.59;102146.47;7281338;19;152513;-60
2022/07/05 04:48:31;;;;;;;;;;;;;;;21.79;51.36;102138.31;7283358;19;154476;-59
2022/07/05 04:50:57;;;;;;;;;;;;;;;21.75;51.85;102146.50;7277884;19;153213;-61
2022/07/05 04:53:24;;;;;;;;;;;;;;;21.72;51.70;102149.88;7282732;19;152263;-60
2022/07/05 04:55:51;;;;;;;;;;;;;;;21.76;51.42;102152.97;7280348;19;152404;-59
2022/07/05 04:58:18;;;;;;;;;;;;;;;21.76;51.47;102147.34;7283436;19;153574;-60
2022/07/05 05:00:44;;;;;;;;;;;;;;;21.77;51.57;102155.47;7279208;19;152305;-60
2022/07/05 05:03:11;;;;;;;;;;;;;;;21.79;51.19;102153.22;7282596;19;152772;-60
2022/07/05 05:05:38;;;;;;;;;;;;;;;21.76;51.39;102158.59;7286054;19;153453;-60
2022/07/05 05:08:05;;;;;;;;;;;;;;;21.70;51.32;102158.63;7282044;19;154339;-60
2022/07/05 05:10:31;;;;;;;;;;;;;;;21.68;51.80;102155.22;7280731;19;152981;-59
2022/07/05 05:12:58;;;;;;;;;;;;;;;21.64;51.83;102165.38;7282933;19;152805;-59
2022/07/05 05:15:25;;;;;;;;;;;;;;;21.66;52.00;102162.28;7280165;19;152089;-59
2022/07/05 05:17:51;;;;;;;;;;;;;;;21.65;52.04;102161.44;7281735;19;153062;-60
2022/07/05 05:20:19;;;;;;;;;;;;;;;21.68;51.75;102160.84;7280064;19;152767;-60
2022/07/05 05:22:46;;;;;;;;;;;;;;;21.65;51.62;102166.22;7282372;19;153981;-61
2022/07/05 05:25:13;;;;;;;;;;;;;;;21.63;51.54;102166.50;7281054;19;153193;-61
2022/07/05 05:27:44;;;;;;;;;;;;;;;21.63;51.91;102169.31;7287489;19;152471;-61
2022/07/05 05:30:14;;;;;;;;;;;;;;;21.65;51.93;102164.25;7276125;19;154918;-60
2022/07/05 05:32:41;;;;;;;;;;;;;;;21.64;52.01;102165.38;7282178;19;152022;-60
2022/07/05 05:35:08;;;;;;;;;;;;;;;21.63;51.59;102177.75;7277676;19;152534;-60
2022/07/05 05:37:48;;;;;;;;;;;;;;;21.62;51.65;102180.88;7277267;19;154139;-60
2022/07/05 05:40:15;;;;;;;;;;;;;;;21.61;51.85;102188.47;7279811;19;152948;-59
2022/07/05 05:42:41;;;;;;;;;;;;;;;21.63;51.57;102189.00;7282278;19;152289;-61
2022/07/05 05:45:09;;;;;;;;;;;;;;;21.65;51.91;102189.56;7280271;19;154405;-60
2022/07/05 05:47:46;;;;;;;;;;;;;;;21.61;52.11;102191.28;7288993;19;153767;-61
2022/07/05 05:50:13;;;;;;;;;;;;;;;21.67;51.84;102184.47;7276280;19;154646;-59
2022/07/05 05:52:39;;;;;;;;;;;;;;;21.74;51.45;102184.19;7277950;19;152611;-59
2022/07/05 05:55:06;;;;;;;;;;;;;;;21.72;51.54;102187.28;7279971;19;152358;-60
2022/07/05 05:57:34;;;;;;;;;;;;;;;21.72;51.36;102201.34;7281062;19;153932;-61
2022/07/05 06:00:02;;;;;;;;;;;;;;;21.76;51.48;102195.97;7279369;19;154219;-60
2022/07/05 06:02:28;;;;;;;;;;;;;;;21.70;51.37;102208.41;7280206;19;152924;-61
2022/07/05 06:04:55;;;;;;;;;;;;;;;21.67;51.74;102206.97;7279390;19;153773;-60
2022/07/05 06:07:22;;;;;;;;;;;;;;;21.64;51.57;102217.97;7279439;19;152176;-60
2022/07/05 06:09:49;;;;;;;;;;;;;;;21.68;51.82;102217.13;7287765;19;152422;-60
2022/07/05 06:12:16;;;;;;;;;;;;;;;21.73;51.56;102214.28;7280227;19;152948;-58
2022/07/05 06:14:42;;;;;;;;;;;;;;;21.70;52.09;102208.41;7280698;19;152545;-59
2022/07/05 06:17:11;;;;;;;;;;;;;;;21.72;52.24;102208.94;7278397;19;154298;-60
2022/07/05 06:19:37;;;;;;;;;;;;;;;21.70;52.48;102214.88;7276970;19;152776;-60
2022/07/05 06:22:04;;;;;;;;;;;;;;;21.67;52.36;102223.84;7276115;19;154593;-60
2022/07/05 06:24:31;;;;;;;;;;;;;;;21.64;52.08;102217.97;7279933;19;155223;-60
2022/07/05 06:26:58;;;;;;;;;;;;;;;21.62;52.09;102223.88;7277041;19;154447;-61
2022/07/05 06:29:24;;;;;;;;;;;;;;;21.64;51.98;102229.22;7278231;19;152631;-60
2022/07/05 06:31:51;;;;;;;;;;;;;;;21.65;51.76;102225.28;7282543;19;153420;-60
2022/07/05 06:34:18;;;;;;;;;;;;;;;21.62;47.88;102217.44;7279180;19;152600;-59
2022/07/05 06:36:45;;;;;;;;;;;;;;;21.55;45.69;102222.50;7273341;19;154028;-59
2022/07/05 06:39:12;;;;;;;;;;;;;;;21.49;44.48;102227.28;7280207;19;152044;-60
2022/07/05 06:41:38;;;;;;;;;;;;;;;21.39;44.78;102235.75;7276602;19;152061;-59
2022/07/05 06:44:05;;;;;;;;;;;;;;;21.28;44.18;102222.81;7278248;19;152830;-59
2022/07/05 06:46:52;;;;;;;;;;;;;;;21.14;43.63;102238.56;7278448;19;152801;-59
2022/07/05 06:49:19;;;;;;;;;;;;;;;21.03;43.61;102239.66;7277568;19;156440;-60
2022/07/05 06:51:45;;;;;;;;;;;;;;;20.94;43.51;102233.72;7276413;19;153244;-59
2022/07/05 06:54:12;;;;;;;;;;;;;;;20.89;43.68;102233.75;7285527;19;152181;-59
2022/07/05 06:56:59;;;;;;;;;;;;;;;20.81;44.05;102239.91;7275120;19;154460;-59
2022/07/05 06:59:50;;;;;;;;;;;;;;;20.73;44.00;102248.88;7277557;19;153451;-60
2022/07/05 07:02:25;;;;;;;;;;;;;;;20.66;44.06;102245.50;7278591;19;153222;-58
2022/07/05 07:04:52;;;;;;;;;;;;;;;20.61;44.29;102237.91;7275663;19;152563;-60
2022/07/05 07:10:23;;;;;;;;;;;;;;;20.41;44.08;102249.09;7277731;19;152861;-60
2022/07/05 07:12:54;;;;;;;;;;;;;;;20.43;44.61;102246.84;7280065;19;154411;-60
2022/07/05 07:15:21;;;;;;;;;;;;;;;20.46;44.67;102251.06;7276752;19;152547;-59
2022/07/05 07:17:48;;;;;;;;;;;;;;;20.46;45.98;102248.25;7286033;19;152703;-60
2022/07/05 07:20:14;;;;;;;;;;;;;;;20.64;46.16;102257.00;7276078;19;152144;-57
2022/07/05 07:22:41;;;;;;;;;;;;;;;20.68;46.66;102251.69;7278314;19;152605;-60
2022/07/05 07:25:08;;;;;;;;;;;;;;;20.76;47.31;102251.13;7276784;19;153209;-66
2022/07/05 07:27:45;;;;;;;;;;;;;;;20.78;46.77;102248.91;7279087;19;153065;-61
2022/07/05 07:30:13;;;;;;;;;;;;;;;20.78;46.81;102258.16;7275586;19;152545;-60
2022/07/05 07:32:40;;;;;;;;;;;;;;;20.80;47.24;102255.91;7274051;19;153640;-60
2022/07/05 07:35:07;;;;;;;;;;;;;;;20.87;46.84;102252.84;7277101;19;152528;-60
2022/07/05 07:37:34;;;;;;;;;;;;;;;20.90;47.02;102252.28;7277812;19;152338;-61
2022/07/05 07:40:02;;;;;;;;;;;;;;;20.94;46.93;102259.03;7284497;19;153033;-66
2022/07/05 07:42:29;;;;;;;;;;;;;;;21.01;46.89;102267.19;7276886;19;153335;-61
2022/07/05 07:44:56;;;;;;;;;;;;;;;21.07;46.91;102257.66;7277160;19;154619;-60
2022/07/05 07:47:22;;;;;;;;;;;;;;;21.13;47.01;102259.34;7277623;19;152678;-61
2022/07/05 07:49:49;;;;;;;;;;;;;;;21.18;46.79;102262.16;7277690;19;152564;-61
2022/07/05 07:52:16;;;;;;;;;;;;;;;21.23;46.90;102260.19;7271053;19;154280;-60
2022/07/05 07:54:43;;;;;;;;;;;;;;;21.30;46.48;102251.50;7277875;19;152080;-60
2022/07/05 07:57:10;;;;;;;;;;;;;;;21.36;46.48;102258.78;7273713;19;153335;-60
2022/07/05 07:59:37;;;;;;;;;;;;;;;21.42;46.30;102262.44;7284828;19;152545;-61
2022/07/05 08:02:04;;;;;;;;;;;;;;;21.46;46.41;102260.75;7276016;19;152741;-60
2022/07/05 08:04:30;;;;;;;;;;;;;;;21.50;46.26;102259.06;7274933;19;153220;-61
2022/07/05 08:06:57;;;;;;;;;;;;;;;21.53;46.51;102256.50;7276551;19;151871;-61
2022/07/05 08:09:24;;;;;;;;;;;;;;;21.56;46.21;102252.31;7277597;19;152670;-61
2022/07/05 08:11:51;;;;;;;;;;;;;;;21.60;46.24;102251.47;7276830;19;154198;-61
2022/07/05 08:14:17;;;;;;;;;;;;;;;21.63;46.19;102258.47;7278125;19;152306;-61
2022/07/05 08:16:53;;;;;;;;;;;;;;;21.66;45.92;102258.75;7276317;19;152636;-61
2022/07/05 08:22:07;;;;;;;;;;;;;;;21.70;46.14;102243.00;7289818;19;152506;-60
2022/07/05 08:24:35;;;;;;;;;;;;;;;21.73;45.62;102250.84;7283960;19;153807;-60
2022/07/05 08:27:02;;;;;;;;;;;;;;;21.77;45.66;102250.28;7283783;19;152108;-60
2022/07/05 08:29:29;;;;;;;;;;;;;;;21.78;45.77;102241.56;7284129;19;154827;-61
2022/07/05 08:31:56;;;;;;;;;;;;;;;21.81;45.81;102248.56;7278170;19;153499;-61
2022/07/05 08:34:22;;;;;;;;;;;;;;;21.81;45.62;102242.94;7279972;19;152261;-61
2022/07/05 08:36:49;;;;;;;;;;;;;;;21.83;45.73;102247.19;7280522;19;152671;-61
2022/07/05 08:39:16;;;;;;;;;;;;;;;21.84;45.36;102246.06;7280650;19;152550;-60
2022/07/05 08:41:45;;;;;;;;;;;;;;;21.84;45.76;102240.44;7284056;19;152427;-60
2022/07/05 08:44:13;;;;;;;;;;;;;;;21.87;45.73;102247.44;7290318;19;153402;-60
2022/07/05 08:46:41;;;;;;;;;;;;;;;21.87;45.42;102244.63;7283152;19;152801;-60
2022/07/05 08:49:19;;;;;;;;;;;;;;;21.88;45.61;102244.34;7281006;19;153714;-60
2022/07/05 08:51:46;;;;;;;;;;;;;;;21.88;45.84;102247.16;7280702;19;155763;-61
2022/07/05 08:54:13;;;;;;;;;;;;;;;21.90;45.39;102246.88;7280901;19;152332;-63
2022/07/05 08:56:46;;;;;;;;;;;;;;;21.89;45.60;102251.69;7281771;19;151830;-60
2022/07/05 08:59:44;;;;;;;;;;;;;;;21.92;45.22;102253.91;7282203;19;153296;-60
2022/07/05 09:02:13;;;;;;;;;;;;;;;21.91;45.16;102248.56;7281965;19;152316;-61
2022/07/05 09:04:42;;;;;;;;;;;;;;;21.91;45.60;102248.56;7282908;19;153125;-60
2022/07/05 09:07:10;;;;;;;;;;;;;;;21.95;45.23;102258.13;7288086;19;154930;-60
2022/07/05 09:09:43;;;;;;;;;;;;;;;21.94;45.44;102260.09;7283052;19;152238;-60
2022/07/05 09:12:11;;;;;;;;;;;;;;;21.96;45.30;102260.69;7281888;19;153983;-60
2022/07/05 09:14:47;;;;;;;;;;;;;;;21.95;44.79;102258.13;7283210;19;152386;-60
2022/07/05 09:17:14;;;;;;;;;;;;;;;21.93;44.84;102254.78;7280026;19;153292;-61
2022/07/05 09:19:41;;;;;;;;;;;;;;;21.94;45.14;102257.28;7276648;19;153235;-60
2022/07/05 09:22:08;;;;;;;;;;;;;;;21.94;45.08;102253.66;7278356;19;152791;-60
2022/07/05 09:24:44;;;;;;;;;;;;;;;21.92;44.85;102250.25;7283398;19;152125;-60
2022/07/05 09:27:13;;;;;;;;;;;;;;;21.92;44.71;102267.13;7279011;19;153366;-61
2022/07/05 09:29:52;;;;;;;;;;;;;;;21.95;44.58;102261.81;7287149;19;152018;-60
2022/07/05 09:32:30;;;;;;;;;;;;;;;21.97;45.01;102256.75;7276487;19;154130;-60
2022/07/05 09:34:56;;;;;;;;;;;;;;;21.99;44.96;102254.47;7273835;19;152923;-60
2022/07/05 09:37:41;;;;;;;;;;;;;;;22.04;44.79;102256.41;7277759;19;153216;-60
2022/07/05 09:40:08;;;;;;;;;;;;;;;22.04;45.09;102260.06;7273391;19;154440;-60
2022/07/05 09:42:37;;;;;;;;;;;;;;;22.08;45.08;102260.34;7282445;19;152821;-60
2022/07/05 09:45:05;;;;;;;;;;;;;;;22.12;44.69;102258.66;7281745;19;152269;-61
2022/07/05 09:47:32;;;;;;;;;;;;;;;22.12;44.80;102255.84;7280151;19;153954;-60
2022/07/05 09:50:06;;;;;;;;;;;;;;;22.14;44.51;102257.22;7285956;19;152399;-69
2022/07/05 09:52:41;;;;;;;;;;;;;;;22.14;44.86;102253.56;7281242;19;153701;-60
2022/07/05 09:55:16;;;;;;;;;;;;;;;22.14;44.94;102267.66;7280488;19;152185;-60
2022/07/05 09:57:55;;;;;;;;;;;;;;;22.10;44.80;102258.94;7266715;19;153980;-60
2022/07/05 10:00:23;;;;;;;;;;;;;;;22.12;44.66;102265.09;7277800;19;153126;-64
2022/07/05 10:02:53;;;;;;;;;;;;;;;22.08;44.64;102264.00;7281132;19;153198;-60
2022/07/05 10:05:21;;;;;;;;;;;;;;;22.16;44.55;102265.41;7277499;19;153484;-60
2022/07/05 10:07:49;;;;;;;;;;;;;;;22.14;44.90;102273.28;7277792;19;152630;-60
2022/07/05 10:10:18;;;;;;;;;;;;;;;22.11;45.14;102268.22;7281004;19;151847;-61
2022/07/05 10:12:47;;;;;;;;;;;;;;;22.12;44.98;102275.56;7288926;19;153259;-60
2022/07/05 10:15:14;;;;;;;;;;;;;;;22.12;44.59;102269.94;7281436;19;152507;-61
2022/07/05 10:17:59;;;;;;;;;;;;;;;22.15;44.59;102278.63;7279279;19;153469;-61
2022/07/05 10:20:46;;;;;;;;;;;;;;;22.14;44.73;102281.72;7277207;19;152516;-61
2022/07/05 10:23:16;;;;;;;;;;;;;;;22.11;44.73;102283.16;7278751;19;152424;-60
2022/07/05 10:25:47;;;;;;;;;;;;;;;22.12;44.94;102287.63;7280088;19;152150;-60
2022/07/05 10:28:23;;;;;;;;;;;;;;;22.16;45.22;102279.47;7279074;19;154102;-60
2022/07/05 10:30:52;;;;;;;;;;;;;;;22.21;45.35;102284.25;7280363;19;152874;-60
2022/07/05 10:33:26;;;;;;;;;;;;;;;22.25;45.08;102290.97;7278378;19;152831;-61
2022/07/05 10:35:53;;;;;;;;;;;;;;;22.22;45.02;102283.94;7271011;19;154109;-60
2022/07/05 10:38:20;;;;;;;;;;;;;;;22.28;45.10;102294.06;7278255;19;153059;-61
2022/07/05 10:40:49;;;;;;;;;;;;;;;22.28;45.02;102288.44;7277277;19;153940;-60
2022/07/05 10:43:16;;;;;;;;;;;;;;;22.25;45.26;102277.75;7279039;19;152584;-60
2022/07/05 10:45:50;;;;;;;;;;;;;;;22.32;45.41;102281.09;7279149;19;153588;-60
2022/07/05 10:48:17;;;;;;;;;;;;;;;22.34;44.98;102280.81;7276399;19;152655;-60
2022/07/05 10:50:49;;;;;;;;;;;;;;;22.36;45.15;102281.34;7278593;19;153726;-60
2022/07/05 10:53:22;;;;;;;;;;;;;;;22.32;45.14;102272.63;7278745;19;152280;-60
2022/07/05 10:55:48;;;;;;;;;;;;;;;22.33;45.24;102271.50;7278817;19;154430;-60
2022/07/05 10:58:21;;;;;;;;;;;;;;;22.33;45.47;102277.16;7285673;19;153319;-60
2022/07/05 11:00:49;;;;;;;;;;;;;;;22.37;45.40;102277.41;7275571;19;152910;-60
2022/07/05 11:03:35;;;;;;;;;;;;;;;22.40;44.93;102285.28;7276134;19;152355;-60
2022/07/05 11:06:02;;;;;;;;;;;;;;;22.45;44.88;102277.66;7278730;19;153485;-61
2022/07/05 11:08:32;;;;;;;;;;;;;;;22.45;45.22;102277.66;7278006;19;154260;-60
2022/07/05 11:11:12;;;;;;;;;;;;;;;22.43;44.96;102284.72;7279116;19;153217;-60
2022/07/05 11:13:47;;;;;;;;;;;;;;;22.44;44.96;102281.59;7280507;19;152831;-61
2022/07/05 11:16:23;;;;;;;;;;;;;;;22.46;45.04;102270.88;7277764;19;153800;-60
2022/07/05 11:18:52;;;;;;;;;;;;;;;22.49;45.15;102283.53;7277405;19;152077;-61
2022/07/05 11:21:18;;;;;;;;;;;;;;;22.48;44.89;102281.88;7283187;19;154181;-60
2022/07/05 11:23:46;;;;;;;;;;;;;;;22.55;45.10;102277.59;7278195;19;152645;-61
2022/07/05 11:26:13;;;;;;;;;;;;;;;22.53;44.93;102262.13;7279018;19;152720;-61
2022/07/05 11:28:44;;;;;;;;;;;;;;;22.43;44.92;102271.47;7278696;19;153154;-61
2022/07/05 11:31:11;;;;;;;;;;;;;;;22.42;45.22;102278.22;7277992;19;153908;-61
2022/07/05 11:33:44;;;;;;;;;;;;;;;22.40;45.02;102272.03;7277655;19;152956;-60
2022/07/05 11:36:22;;;;;;;;;;;;;;;22.41;45.34;102264.44;7272404;19;153129;-60
2022/07/05 11:39:09;;;;;;;;;;;;;;;22.42;45.04;102268.94;7270965;19;152554;-59
2022/07/05 11:41:39;;;;;;;;;;;;;;;22.48;45.13;102270.59;7275528;19;153821;-60
2022/07/05 11:44:07;;;;;;;;;;;;;;;22.47;45.00;102271.72;7284435;19;153216;-60
2022/07/05 11:46:34;;;;;;;;;;;;;;;22.41;45.07;102267.25;7277153;19;153634;-61
2022/07/05 11:49:20;;;;;;;;;;;;;;;22.43;45.13;102263.03;7275381;19;153429;-61
2022/07/05 11:51:57;;;;;;;;;;;;;;;22.45;45.29;102266.38;7275308;19;153507;-60
2022/07/05 11:54:25;;;;;;;;;;;;;;;22.48;45.33;102271.44;7279659;19;154178;-61
2022/07/05 11:57:01;;;;;;;;;;;;;;;22.52;45.37;102263.25;7282140;19;154258;-60
2022/07/05 11:59:28;;;;;;;;;;;;;;;22.51;45.28;102264.38;7282633;19;152554;-60
2022/07/05 12:01:55;;;;;;;;;;;;;;;22.51;45.03;102262.41;7283464;19;154300;-60
2022/07/05 12:04:24;;;;;;;;;;;;;;;22.52;44.94;102277.34;7289902;19;153699;-61
2022/07/05 12:06:54;;;;;;;;;;;;;;;22.53;45.26;102268.59;7280427;19;152673;-61
2022/07/05 12:15:03;;;;;;;;;;;;;;;22.41;45.50;102267.25;7282350;19;152400;-60
2022/07/05 12:17:33;;;;;;;;;;;;;;;22.37;45.30;102267.00;7282115;19;153314;-60
2022/07/05 12:20:00;;;;;;;;;;;;;;;22.35;45.39;102260.78;7281725;19;153224;-61
2022/07/05 12:22:27;;;;;;;;;;;;;;;22.33;45.73;102259.41;7282247;19;151832;-60
2022/07/05 12:24:54;;;;;;;;;;;;;;;22.32;45.79;102268.97;7281533;19;153673;-60
2022/07/05 12:27:21;;;;;;;;;;;;;;;22.29;45.69;102261.97;7290359;19;151875;-60
2022/07/05 12:29:48;;;;;;;;;;;;;;;22.28;45.50;102265.06;7281276;19;154683;-60
2022/07/05 12:32:15;;;;;;;;;;;;;;;22.26;45.61;102265.34;7282232;19;153148;-60
2022/07/05 12:34:42;;;;;;;;;;;;;;;22.25;45.62;102260.88;7280800;19;153491;-61
2022/07/05 12:37:27;;;;;;;;;;;;;;;22.24;45.70;102261.97;7276544;19;153937;-60
2022/07/05 12:40:07;;;;;;;;;;;;;;;22.25;45.81;102258.03;7278506;19;153040;-60
2022/07/05 12:42:35;;;;;;;;;;;;;;;22.26;46.00;102259.69;7285122;19;153106;-60
2022/07/05 12:45:06;;;;;;;;;;;;;;;22.29;45.88;102256.34;7282191;19;154517;-60
2022/07/05 12:47:36;;;;;;;;;;;;;;;22.27;45.63;102257.72;7283367;19;152054;-61